Sunday, May 27, 2018, 9:50 AM EDT
Back to Local

KEWR, Newark International Airport

Location: Elizabeth, NJ, United States Lat: 40.683
Local Time: 9:50 AM EDT (13:50 GMT) Lon: -74.167
Time Zone: US/Eastern Elev: 16 ft

Show me the last for .
Show Decoded

2018-05-27 09:21 METAR KEWR 271321Z 05007KT 4SM RA BR BKN008 OVC014 18/17 A2999 RMK AO2 P0013
                 T01780167 =
2018-05-27 08:51 METAR KEWR 271251Z 04013KT 3SM +RA BR FEW007 OVC012 18/17 A2999 RMK AO2 TSE05
                 SLP153 P0025 T01780167 =
2018-05-27 08:05 METAR KEWR 271205Z 05005KT 4SM RA BR FEW009 BKN014CB OVC050 18/17 A2998 RMK AO2
                 TSE05 CB OHD MOV NE P0006 T01830172 =
2018-05-27 07:51 METAR KEWR 271151Z 04008KT 5SM TSRA BR BKN014CB BKN022 OVC080 19/17 A2997 RMK
                 AO2 LTG DSNT SW TSB25 SLP149 OCNL LTGICCG OHD-VC E TS OHD-VC E MOV NE P0017
                 60041 70041 T01890167 10256 20183 50024 =
2018-05-27 07:25 METAR KEWR 271125Z 06008KT 4SM -TSRA BR FEW006 BKN014CB OVC022 19/17 A2997 RMK
                 AO2 LTG DSNT ALQDS TSB25 OCNL LTGICCG OHD TS OHD MOV NE P0009 T01890172 =
2018-05-27 06:59 METAR KEWR 271059Z 10005KT 3SM RA BR FEW006 BKN014CB OVC022 19/17 A2999 RMK AO2
                 CB OHD MOV NE P0004 T01890172 =
2018-05-27 06:51 METAR KEWR 271051Z 08007KT 4SM RA BR FEW010 BKN015CB OVC025 19/17 A2998 RMK AO2
                 LTG DSNT SW TSE04 SLP153 CB OHD MOV NE P0006 T01890172 =
2018-05-27 06:32 METAR KEWR 271032Z 11007KT 8SM -RA SCT016CB OVC028 19/17 A2998 RMK AO2 LTG DSNT
                 SE-SW TSE04 CB OHD MOV NE P0001 T01940172 =
2018-05-27 06:04 METAR KEWR 271004Z 06008KT 7SM -RA FEW012 SCT028 BKN060 OVC130 20/17 A2994 RMK
                 AO2 LTG DSNT SE-SW TSE04 CB DSNT SW MOV NE P0001 T02000172 =
2018-05-27 05:51 METAR KEWR 270951Z 05008KT 7SM -TSRA FEW012 BKN028CB OVC060 20/18 A2994 RMK AO2
                 LTG DSNT SE-SW SLP138 OCNL LTGIC VC SW TS VC SW MOV NE P0006 T02000178 =
2018-05-27 05:17 METAR KEWR 270917Z 07008KT 6SM TSRA SCT016 BKN026CB OVC060 21/18 A2992 RMK AO2
                 LTG DSNT S-W OCNL LTGIC OHD TS OHD MOV NE P0002 T02110178 $ =
2018-05-27 05:04 METAR KEWR 270904Z 08004KT 6SM TSRA BR BKN014 BKN022CB OVC040 21/19 A2991 RMK
                 AO2 LTG DSNT SW AND W OCNL LTGIC OHD TS OHD MOV NE P0001 T02110189 $ =
2018-05-27 04:51 METAR KEWR 270851Z 10005KT 6SM TSRA BR FEW014 BKN040CB OVC080 22/19 A2990 RMK
                 AO2 LTG DSNT S-W TSB34 SLP125 OCNL LTGIC OHD TS OHD MOV NE P0012 60012 T02170194
                 53017 =
2018-05-27 04:34 METAR KEWR 270834Z 05006KT 4SM TSRA BKN032 OVC050CB 22/19 A2989 RMK AO2 LTG DSNT
                 S-W TSB34 OCNL LTGIC OHD TS OHD MOV NE P0005 T02220194 =
2018-05-27 03:51 METAR KEWR 270751Z 09010KT 10SM -RA BKN035 OVC070 24/19 A2988 RMK AO2 LTG DSNT S
                 AND SW RAB36 SLP118 P0000 T02390189 =
2018-05-27 02:51 METAR KEWR 270651Z 17003KT 10SM FEW040 BKN120 OVC180 25/19 A2986 RMK AO2 LTG
                 DSNT SE AND S SLP112 OCNL LTGIC DSNT SE CB DSNT SE MOV NE T02500194 =
2018-05-27 01:51 METAR KEWR 270551Z 00000KT 10SM FEW060 FEW120 OVC180 26/19 A2985 RMK AO2 SLP108
                 OCNL LTGIC DSNT S CB DSNT S MOV NE T02560194 10272 20244 58002 =
2018-05-27 00:51 METAR KEWR 270451Z 20006KT 10SM FEW060 BKN130 OVC220 25/20 A2986 RMK AO2 SLP112
                 T02500200 403330211 =
2018-05-26 23:51 METAR KEWR 270351Z 22006KT 10SM FEW060 SCT150 BKN220 26/19 A2986 RMK AO2 SLP112
                 T02560194 =
2018-05-26 22:51 METAR KEWR 270251Z 20003KT 10SM FEW060 FEW130 BKN220 26/19 A2986 RMK AO2 SLP110
                 T02560189 51017 =
2018-05-26 21:51 METAR KEWR 270151Z 00000KT 10SM FEW060 FEW130 BKN230 27/19 A2985 RMK AO2 SLP108
                 T02670189 =
2018-05-26 20:51 METAR KEWR 270051Z 17005KT 10SM FEW060 SCT110 SCT250 26/19 A2982 RMK AO2 LTG
                 DSNT S SLP097 FRQ LTGIC DSNT S CB DSNT S MOV E T02610189 =
2018-05-26 19:51 METAR KEWR 262351Z 19007KT 10SM FEW060 FEW100 SCT250 27/19 A2981 RMK AO2 SLP094
                 CB DSNT SE MOV E T02670194 10333 20267 53013 =
2018-05-26 18:51 METAR KEWR 262251Z 24007KT 10SM FEW060 SCT100 SCT250 30/17 A2978 RMK AO2 LTG
                 DSNT SE AND S SLP085 OCNL LTGIC DSNT SE-DSNT S CB DSNT SE-DSNT S MOV E T03000172
                 =
2018-05-26 17:51 METAR KEWR 262151Z 25009KT 10SM SCT060 SCT100 BKN250 32/18 A2977 RMK AO2 LTG
                 DSNT NE SLP080 T03220178 =
2018-05-26 16:51 METAR KEWR 262051Z 26010KT 10SM SCT060 SCT130 BKN250 32/18 A2977 RMK AO2 SLP081
                 TCU DSNT W T03220178 55005 =
2018-05-26 15:51 METAR KEWR 261951Z 22008KT 10SM SCT060 SCT140 BKN250 32/18 A2977 RMK AO2 SLP080
                 TCU DSNT SE T03170183 =
2018-05-26 14:51 METAR KEWR 261851Z 27012KT 10SM SCT065 SCT160 BKN250 33/17 A2978 RMK AO2 SLP083
                 T03330167 =
2018-05-26 13:51 METAR KEWR 261751Z 25007G16KT 10SM FEW055 FEW085 SCT160 BKN250 32/17 A2979 RMK
                 AO2 SLP087 T03220172 10328 20244 57010 =
2018-05-26 12:51 METAR KEWR 261651Z 25010KT 10SM FEW050 FEW085 SCT160 BKN250 32/17 A2980 RMK AO2
                 SLP090 T03170172 =
2018-05-26 11:51 METAR KEWR 261551Z 20007KT 10SM FEW038 SCT085 SCT150 BKN250 29/20 A2981 RMK AO2
                 SLP094 T02940200 =
2018-05-26 10:51 METAR KEWR 261451Z 25004KT 10SM FEW080 SCT150 BKN250 30/18 A2982 RMK AO2 SLP097
                 T03000183 58004 =
2018-05-26 09:51 METAR KEWR 261351Z 23005KT 10SM FEW080 FEW140 BKN250 28/20 A2983 RMK AO2 SLP099
                 T02780200 =

Support USWX by starting your Amazon purchase here.